createdAt,value
2023-01-07T00:01:30.580Z,44.30
2023-01-07T00:03:59.342Z,43.45
2023-01-07T00:06:28.653Z,42.67
2023-01-07T00:08:56.907Z,43.08
2023-01-07T00:11:29.366Z,42.70
2023-01-07T00:13:57.640Z,41.38
2023-01-07T00:16:27.659Z,42.88
2023-01-07T00:18:55.826Z,42.35
2023-01-07T00:21:24.104Z,41.17
2023-01-07T00:23:56.264Z,43.05
2023-01-07T00:26:25.236Z,40.50
2023-01-07T00:28:53.710Z,42.78
2023-01-07T00:31:26.679Z,43.35
2023-01-07T00:33:54.095Z,43.13
2023-01-07T00:36:27.065Z,43.95
2023-01-07T00:39:15.864Z,44.90
2023-01-07T00:42:03.508Z,42.22
2023-01-07T00:44:31.126Z,44.05
2023-01-07T00:46:59.301Z,46.78
2023-01-07T00:49:26.676Z,42.42
2023-01-07T00:51:53.665Z,44.22
2023-01-07T00:54:20.614Z,44.95
2023-01-07T00:56:47.462Z,46.00
2023-01-07T00:59:14.374Z,43.55
2023-01-07T01:01:43.259Z,43.53
2023-01-07T01:04:10.316Z,45.72
2023-01-07T01:06:37.165Z,45.28
2023-01-07T01:09:04.071Z,44.53
2023-01-07T01:11:30.906Z,46.35
2023-01-07T01:13:57.763Z,45.03
2023-01-07T01:16:24.568Z,45.42
2023-01-07T01:18:51.715Z,46.70
2023-01-07T01:21:19.231Z,44.85
2023-01-07T01:23:46.605Z,46.00
2023-01-07T01:26:16.887Z,43.90
2023-01-07T01:28:44.869Z,45.45
2023-01-07T01:31:14.350Z,50.00
2023-01-07T01:33:56.217Z,50.50
2023-01-07T01:36:24.134Z,45.67
2023-01-07T01:38:52.792Z,48.15
2023-01-07T01:41:20.727Z,43.42
2023-01-07T01:43:51.011Z,46.80
2023-01-07T01:46:41.220Z,47.40
2023-01-07T01:49:21.018Z,45.95
2023-01-07T01:52:02.693Z,45.17
2023-01-07T01:54:29.765Z,45.90
2023-01-07T01:57:00.840Z,47.80
2023-01-07T01:59:31.111Z,46.83
2023-01-07T02:02:02.611Z,49.30
2023-01-07T02:04:31.547Z,46.00
2023-01-07T02:07:06.700Z,48.83
2023-01-07T02:09:36.949Z,46.63
2023-01-07T02:12:24.633Z,48.38
2023-01-07T02:15:11.999Z,48.92
2023-01-07T02:17:51.359Z,50.13
2023-01-07T02:20:18.124Z,49.72
2023-01-07T02:23:02.187Z,49.08
2023-01-07T02:25:51.345Z,50.50
2023-01-07T02:28:32.790Z,49.95
2023-01-07T02:31:21.435Z,51.13
2023-01-07T02:33:54.155Z,51.15
2023-01-07T02:36:44.583Z,50.85
2023-01-07T02:39:30.591Z,51.00
2023-01-07T02:41:58.633Z,49.22
2023-01-07T02:44:33.301Z,49.38
2023-01-07T02:49:31.425Z,50.88
2023-01-07T02:52:31.904Z,49.70
2023-01-07T02:55:10.594Z,49.97
2023-01-07T02:58:00.097Z,48.78
2023-01-07T03:00:47.237Z,49.05
2023-01-07T03:03:25.674Z,49.33
2023-01-07T03:06:27.755Z,49.15
2023-01-07T03:09:22.068Z,49.38
2023-01-07T03:11:54.974Z,51.65
2023-01-07T03:14:49.972Z,50.83
2023-01-07T03:17:21.354Z,47.72
2023-01-07T03:19:54.621Z,45.72
2023-01-07T03:22:25.041Z,44.63
2023-01-07T03:24:55.178Z,45.70
2023-01-07T03:27:25.444Z,48.58
2023-01-07T03:29:54.049Z,45.00
2023-01-07T03:32:38.256Z,46.63
2023-01-07T03:35:05.921Z,47.95
2023-01-07T03:37:34.253Z,48.03
2023-01-07T03:40:06.496Z,46.88
2023-01-07T03:42:39.948Z,46.33
2023-01-07T03:45:16.243Z,46.05
2023-01-07T03:47:49.113Z,45.40
2023-01-07T03:50:18.388Z,49.25
2023-01-07T03:52:48.387Z,45.55
2023-01-07T03:55:16.878Z,46.15
2023-01-07T03:57:43.773Z,48.50
2023-01-07T04:00:12.563Z,46.83
2023-01-07T04:02:45.409Z,48.92
2023-01-07T04:05:21.636Z,46.42
2023-01-07T04:07:48.748Z,47.63
2023-01-07T04:10:15.780Z,47.08
2023-01-07T04:12:42.732Z,46.80
2023-01-07T04:15:10.324Z,48.45
2023-01-07T04:17:37.150Z,47.95
2023-01-07T04:20:07.725Z,47.83
2023-01-07T04:22:35.691Z,45.10
2023-01-07T04:25:02.588Z,45.22
2023-01-07T04:27:31.050Z,45.63
2023-01-07T04:29:58.013Z,44.65
2023-01-07T04:32:24.885Z,45.25
2023-01-07T04:34:51.820Z,45.65
2023-01-07T04:37:18.661Z,47.33
2023-01-07T04:39:46.098Z,45.88
2023-01-07T04:42:13.329Z,46.10
2023-01-07T04:44:40.497Z,46.17
2023-01-07T04:47:07.451Z,45.03
2023-01-07T04:49:34.325Z,44.70
2023-01-07T04:52:03.940Z,42.83
2023-01-07T04:54:30.846Z,45.03
2023-01-07T04:56:57.750Z,44.45
2023-01-07T04:59:24.701Z,48.42
2023-01-07T05:01:52.793Z,44.40
2023-01-07T05:04:19.824Z,45.85
2023-01-07T05:06:47.645Z,47.00
2023-01-07T05:09:15.393Z,45.53
2023-01-07T05:11:43.113Z,46.33
2023-01-07T05:14:13.075Z,45.33
2023-01-07T05:16:40.468Z,48.90
2023-01-07T05:19:11.624Z,45.45
2023-01-07T05:21:42.846Z,46.55
2023-01-07T05:24:11.200Z,45.67
2023-01-07T05:26:38.083Z,48.35
2023-01-07T05:29:05.590Z,50.60
2023-01-07T05:31:33.289Z,51.85
2023-01-07T05:34:00.107Z,51.60
2023-01-07T05:36:28.272Z,51.38
2023-01-07T05:38:56.226Z,48.30
2023-01-07T05:41:23.125Z,54.10
2023-01-07T05:43:50.981Z,56.88
2023-01-07T05:46:18.062Z,54.90
2023-01-07T05:48:44.947Z,44.45
2023-01-07T05:51:11.878Z,43.70
2023-01-07T05:53:38.756Z,45.47
2023-01-07T05:56:05.824Z,47.22
2023-01-07T05:58:32.692Z,46.70
2023-01-07T06:00:59.533Z,50.55
2023-01-07T06:03:26.443Z,44.25
2023-01-07T06:05:53.445Z,46.10
2023-01-07T06:08:20.319Z,46.03
2023-01-07T06:10:47.139Z,43.35
2023-01-07T06:13:14.049Z,46.55
2023-01-07T06:15:40.871Z,50.88
2023-01-07T06:18:07.818Z,49.60
2023-01-07T06:20:34.834Z,49.20
2023-01-07T06:23:05.034Z,48.88
2023-01-07T06:25:31.949Z,45.35
2023-01-07T06:27:59.122Z,45.53
2023-01-07T06:30:26.016Z,48.35
2023-01-07T06:32:54.117Z,47.05
2023-01-07T06:35:21.033Z,45.35
2023-01-07T06:37:47.959Z,46.10
2023-01-07T06:40:14.888Z,46.33
2023-01-07T06:42:41.712Z,46.53
2023-01-07T06:45:09.250Z,47.38
2023-01-07T06:47:36.083Z,46.92
2023-01-07T06:50:03.177Z,45.17
2023-01-07T06:52:30.058Z,48.95
2023-01-07T06:54:56.902Z,48.45
2023-01-07T06:57:23.855Z,45.03
2023-01-07T06:59:50.736Z,44.38
2023-01-07T07:02:23.659Z,46.85
2023-01-07T07:04:50.552Z,46.03
2023-01-07T07:07:18.008Z,45.58
2023-01-07T07:09:45.265Z,44.33
2023-01-07T07:12:12.235Z,45.67
2023-01-07T07:14:39.150Z,43.33
2023-01-07T07:17:06.404Z,45.85
2023-01-07T07:19:33.253Z,45.15
2023-01-07T07:22:00.341Z,44.10
2023-01-07T07:24:27.212Z,45.30
2023-01-07T07:26:54.104Z,43.92
2023-01-07T07:29:21.857Z,46.53
2023-01-07T07:31:48.830Z,46.13
2023-01-07T07:34:15.658Z,42.75
2023-01-07T07:36:42.567Z,42.28
2023-01-07T07:39:10.926Z,40.55
2023-01-07T07:41:37.785Z,43.45
2023-01-07T07:44:08.304Z,44.72
2023-01-07T07:46:35.154Z,45.33
2023-01-07T07:49:02.124Z,45.10
2023-01-07T07:51:29.208Z,45.53
2023-01-07T07:53:56.080Z,46.25
2023-01-07T07:56:22.928Z,45.03
2023-01-07T07:58:49.781Z,42.15
2023-01-07T08:01:16.796Z,42.33
2023-01-07T08:03:43.861Z,42.17
2023-01-07T08:06:12.362Z,42.90
2023-01-07T08:08:39.305Z,41.78
2023-01-07T08:11:06.143Z,40.65
2023-01-07T08:13:33.113Z,40.65
2023-01-07T08:16:00.983Z,42.10
2023-01-07T08:18:27.967Z,39.17
2023-01-07T08:20:55.834Z,36.92
2023-01-07T08:23:23.099Z,36.15
2023-01-07T08:25:49.959Z,34.80
2023-01-07T08:28:16.768Z,39.53
2023-01-07T08:30:43.718Z,36.30
2023-01-07T08:33:11.180Z,37.40
2023-01-07T08:35:38.024Z,37.63
2023-01-07T08:38:07.669Z,37.97
2023-01-07T08:40:35.524Z,35.20
2023-01-07T08:43:04.372Z,35.63
2023-01-07T08:45:31.735Z,36.03
2023-01-07T08:47:58.806Z,37.42
2023-01-07T08:50:30.723Z,36.25
2023-01-07T08:52:58.183Z,37.08
2023-01-07T08:55:25.437Z,38.33
2023-01-07T08:57:52.504Z,33.78
2023-01-07T09:00:19.861Z,37.00
2023-01-07T09:02:46.947Z,37.15
2023-01-07T09:05:14.231Z,38.28
2023-01-07T09:07:41.066Z,38.10
2023-01-07T09:10:08.585Z,37.03
2023-01-07T09:12:35.542Z,36.92
2023-01-07T09:15:02.498Z,38.35
2023-01-07T09:17:29.445Z,37.97
2023-01-07T09:19:56.411Z,37.33
2023-01-07T09:22:23.303Z,37.17
2023-01-07T09:24:50.151Z,36.65
2023-01-07T09:27:17.561Z,35.38
2023-01-07T09:29:44.455Z,36.95
2023-01-07T09:32:11.302Z,34.20
2023-01-07T09:34:38.569Z,35.78
2023-01-07T09:37:06.606Z,34.72
2023-01-07T09:39:33.436Z,35.25
2023-01-07T09:42:21.888Z,34.78
2023-01-07T09:45:04.539Z,31.90
2023-01-07T09:47:36.907Z,33.17
2023-01-07T09:50:20.744Z,30.98
2023-01-07T09:52:53.675Z,34.65
2023-01-07T09:55:38.969Z,33.55
2023-01-07T09:58:26.006Z,35.45
2023-01-07T10:01:00.210Z,31.67
2023-01-07T10:03:46.609Z,33.08
2023-01-07T10:06:43.392Z,34.15
2023-01-07T10:09:25.077Z,33.50
2023-01-07T10:12:04.062Z,33.70
2023-01-07T10:14:31.196Z,33.17
2023-01-07T10:17:26.716Z,34.10
2023-01-07T10:19:53.465Z,34.10
2023-01-07T10:22:36.038Z,36.28
2023-01-07T10:25:18.354Z,34.03
2023-01-07T10:27:47.570Z,33.35
2023-01-07T10:30:26.968Z,31.70
2023-01-07T10:33:10.965Z,33.22
2023-01-07T10:35:40.317Z,32.38
2023-01-07T10:38:15.059Z,34.60
2023-01-07T10:40:50.924Z,33.90
2023-01-07T10:43:24.031Z,34.85
2023-01-07T10:45:59.722Z,34.00
2023-01-07T10:48:41.530Z,32.92
2023-01-07T10:51:23.889Z,34.28
2023-01-07T10:53:59.669Z,32.08
2023-01-07T10:56:39.191Z,30.90
2023-01-07T10:59:08.244Z,34.13
2023-01-07T11:01:38.548Z,33.17
2023-01-07T11:04:14.287Z,30.73
2023-01-07T11:06:41.101Z,30.80
2023-01-07T11:09:13.722Z,30.77
2023-01-07T11:14:15.731Z,30.85
2023-01-07T11:17:08.087Z,30.27
2023-01-07T11:19:49.226Z,31.25
2023-01-07T11:22:30.611Z,32.55
2023-01-07T11:24:59.592Z,33.10
2023-01-07T11:27:35.866Z,31.60
2023-01-07T11:30:10.241Z,35.95
2023-01-07T11:32:43.172Z,33.05
2023-01-07T11:35:15.746Z,35.00
2023-01-07T11:40:14.717Z,31.48
2023-01-07T11:42:54.796Z,30.45
2023-01-07T11:45:27.707Z,29.52
2023-01-07T11:48:15.243Z,29.83
2023-01-07T11:50:54.335Z,31.40
2023-01-07T11:53:37.526Z,30.60
2023-01-07T11:56:07.529Z,30.98
2023-01-07T11:58:37.318Z,32.22
2023-01-07T12:01:20.581Z,32.70
2023-01-07T12:03:53.525Z,30.20
2023-01-07T12:06:34.811Z,31.17
2023-01-07T12:09:07.671Z,31.98
2023-01-07T12:11:37.222Z,32.08
2023-01-07T12:14:45.349Z,31.50
2023-01-07T12:17:18.483Z,34.15
2023-01-07T12:19:58.926Z,30.75
2023-01-07T12:22:25.746Z,31.60
2023-01-07T12:25:12.437Z,30.70
2023-01-07T12:27:51.049Z,29.42
2023-01-07T12:30:35.017Z,31.17
2023-01-07T12:33:20.240Z,28.92
2023-01-07T12:35:47.392Z,28.20
2023-01-07T12:38:25.550Z,29.75
2023-01-07T12:41:01.354Z,29.08
2023-01-07T12:43:34.582Z,30.90
2023-01-07T12:46:05.233Z,31.15
2023-01-07T12:48:39.838Z,30.52
2023-01-07T12:51:22.813Z,31.10
2023-01-07T12:53:58.159Z,33.33
2023-01-07T12:56:33.429Z,30.58
2023-01-07T12:59:46.998Z,34.55
2023-01-07T13:02:37.638Z,33.05
2023-01-07T13:05:26.360Z,32.53
2023-01-07T13:08:14.692Z,31.92
2023-01-07T13:11:04.184Z,33.90
2023-01-07T13:13:41.082Z,32.60
2023-01-07T13:16:14.071Z,32.47
2023-01-07T13:18:41.030Z,34.38
2023-01-07T13:21:16.033Z,34.03
2023-01-07T13:24:55.725Z,33.78
2023-01-07T13:27:18.419Z,33.00
2023-01-07T13:30:16.849Z,32.40
2023-01-07T13:32:58.458Z,32.08
2023-01-07T13:35:52.314Z,35.90
2023-01-07T13:39:06.364Z,33.90
2023-01-07T13:41:54.134Z,31.52
2023-01-07T13:44:35.717Z,35.78
2023-01-07T13:47:04.940Z,35.38
2023-01-07T13:49:33.917Z,34.40
2023-01-07T13:52:19.931Z,35.63
2023-01-07T13:54:50.404Z,32.67
2023-01-07T13:57:26.433Z,36.38
2023-01-07T13:59:55.928Z,37.15
2023-01-07T14:02:25.241Z,37.70
2023-01-07T14:05:11.790Z,40.20
2023-01-07T14:07:47.563Z,37.10
2023-01-07T14:10:34.458Z,38.72
2023-01-07T14:13:14.833Z,37.08
2023-01-07T14:15:53.432Z,37.25
2023-01-07T14:18:53.814Z,37.00
2023-01-07T14:21:20.556Z,33.45
2023-01-07T14:23:50.203Z,33.60
2023-01-07T14:26:31.173Z,34.15
2023-01-07T14:29:13.084Z,35.17
2023-01-07T14:31:40.116Z,33.72
2023-01-07T14:34:23.895Z,33.92
2023-01-07T14:37:04.921Z,34.25
2023-01-07T14:39:36.911Z,35.30
2023-01-07T14:42:18.994Z,36.60
2023-01-07T14:44:50.880Z,35.35
2023-01-07T14:47:45.499Z,36.42
2023-01-07T14:50:49.169Z,34.80
2023-01-07T14:53:37.704Z,36.40
2023-01-07T14:56:21.415Z,37.30
2023-01-07T14:59:02.930Z,39.67
2023-01-07T15:02:06.741Z,38.65
2023-01-07T15:05:04.356Z,40.45
2023-01-07T15:07:36.027Z,37.80
2023-01-07T15:10:38.817Z,39.30
2023-01-07T15:13:50.332Z,39.90
2023-01-07T15:16:21.862Z,38.60
2023-01-07T15:18:51.841Z,38.15
2023-01-07T15:22:04.683Z,39.10
2023-01-07T15:24:54.494Z,38.63
2023-01-07T15:27:53.340Z,38.53
2023-01-07T15:30:35.359Z,36.92
2023-01-07T15:33:17.372Z,39.60
2023-01-07T15:35:44.962Z,38.73
2023-01-07T15:38:31.511Z,39.92
2023-01-07T15:40:59.333Z,39.20
2023-01-07T15:43:28.861Z,39.67
2023-01-07T15:46:04.491Z,41.33
2023-01-07T15:48:31.532Z,40.97
2023-01-07T15:51:00.099Z,43.15
2023-01-07T15:53:29.371Z,40.47
2023-01-07T15:56:13.928Z,42.72
2023-01-07T15:58:44.884Z,42.40
2023-01-07T16:01:23.676Z,39.75
2023-01-07T16:03:53.872Z,37.65
2023-01-07T16:06:33.793Z,38.55
2023-01-07T16:09:16.428Z,38.25
2023-01-07T16:11:44.086Z,36.28
2023-01-07T16:14:37.116Z,38.47
2023-01-07T16:19:40.475Z,39.65
2023-01-07T16:22:11.748Z,38.03
2023-01-07T16:24:38.784Z,39.63
2023-01-07T16:27:06.326Z,41.42
2023-01-07T16:29:38.436Z,41.15
2023-01-07T16:32:08.206Z,42.53
2023-01-07T16:34:35.103Z,40.50
2023-01-07T16:37:03.648Z,41.08
2023-01-07T16:39:34.812Z,43.20
2023-01-07T16:42:23.195Z,42.13
2023-01-07T16:44:53.565Z,42.33
2023-01-07T16:47:26.045Z,41.88
2023-01-07T16:49:55.314Z,46.17
2023-01-07T16:52:26.716Z,44.47
2023-01-07T16:54:53.681Z,47.03
2023-01-07T16:57:42.305Z,45.80
2023-01-07T17:00:20.188Z,44.35
2023-01-07T17:02:49.455Z,44.63
2023-01-07T17:05:29.705Z,45.70
2023-01-07T17:08:15.470Z,46.20
2023-01-07T17:10:46.936Z,43.72
2023-01-07T17:13:13.745Z,43.05
2023-01-07T17:15:42.298Z,44.17
2023-01-07T17:18:11.886Z,39.38
2023-01-07T17:20:46.746Z,41.83
2023-01-07T17:23:28.648Z,42.60
2023-01-07T17:26:19.194Z,44.13
2023-01-07T17:28:47.545Z,43.65
2023-01-07T17:31:14.743Z,44.83
2023-01-07T17:33:42.514Z,45.58
2023-01-07T17:36:17.398Z,46.45
2023-01-07T17:38:44.936Z,45.53
2023-01-07T17:41:34.680Z,43.60
2023-01-07T17:44:03.156Z,44.17
2023-01-07T17:46:30.177Z,43.40
2023-01-07T17:48:58.342Z,45.00
2023-01-07T17:51:27.004Z,45.92
2023-01-07T17:53:57.480Z,47.38
2023-01-07T17:56:24.923Z,45.10
2023-01-07T17:58:53.960Z,42.83
2023-01-07T18:01:23.564Z,43.25
2023-01-07T18:03:52.039Z,45.38
2023-01-07T18:06:22.889Z,41.45
2023-01-07T18:08:51.529Z,40.33
2023-01-07T18:11:40.212Z,43.30
2023-01-07T18:14:08.088Z,43.22
2023-01-07T18:16:34.943Z,41.58
2023-01-07T18:19:01.839Z,43.78
2023-01-07T18:21:28.687Z,43.67
2023-01-07T18:23:55.779Z,44.03
2023-01-07T18:26:23.076Z,40.58
2023-01-07T18:28:50.729Z,40.65
2023-01-07T18:31:17.626Z,41.63
2023-01-07T18:33:44.576Z,37.40
2023-01-07T18:36:11.983Z,37.05
2023-01-07T18:38:39.163Z,38.60
2023-01-07T18:41:06.329Z,37.20
2023-01-07T18:43:33.326Z,40.17
2023-01-07T18:46:00.638Z,40.28
2023-01-07T18:48:27.518Z,39.55
2023-01-07T18:50:54.504Z,40.90
2023-01-07T18:53:22.528Z,39.13
2023-01-07T18:55:58.140Z,38.60
2023-01-07T18:58:26.224Z,39.42
2023-01-07T19:00:53.665Z,40.35
2023-01-07T19:03:20.588Z,39.40
2023-01-07T19:05:47.409Z,41.92
2023-01-07T19:08:15.363Z,40.33
2023-01-07T19:10:42.436Z,42.00
2023-01-07T19:13:09.350Z,43.33
2023-01-07T19:15:36.409Z,44.08
2023-01-07T19:18:03.365Z,45.47
2023-01-07T19:20:30.277Z,44.28
2023-01-07T19:23:00.273Z,44.85
2023-01-07T19:25:29.279Z,47.63
2023-01-07T19:27:57.214Z,47.85
2023-01-07T19:30:24.585Z,45.53
2023-01-07T19:32:53.134Z,44.88
2023-01-07T19:35:20.310Z,44.78
2023-01-07T19:37:47.140Z,43.95
2023-01-07T19:40:13.978Z,45.83
2023-01-07T19:42:41.375Z,44.92
2023-01-07T19:45:08.770Z,44.97
2023-01-07T19:47:35.747Z,44.28
2023-01-07T19:50:02.611Z,43.95
2023-01-07T19:52:29.449Z,44.70
2023-01-07T19:54:56.321Z,45.53
2023-01-07T19:57:23.173Z,48.35
2023-01-07T19:59:50.028Z,45.60
2023-01-07T20:02:17.841Z,44.30
2023-01-07T20:04:44.865Z,51.13
2023-01-07T20:07:11.651Z,59.42
2023-01-07T20:09:40.631Z,49.03
2023-01-07T20:12:07.888Z,43.50
2023-01-07T20:14:34.985Z,42.25
2023-01-07T20:17:01.915Z,40.58
2023-01-07T20:19:30.237Z,42.22
2023-01-07T20:21:57.820Z,44.33
2023-01-07T20:24:24.704Z,46.92
2023-01-07T20:26:54.441Z,67.97
2023-01-07T20:29:21.534Z,61.70
2023-01-07T20:45:38.280Z,58.88
2023-01-07T20:48:05.567Z,54.95
2023-01-07T20:50:35.710Z,54.67
2023-01-07T20:53:02.962Z,52.47
2023-01-07T20:55:29.876Z,53.50
2023-01-07T20:57:56.739Z,54.70
2023-01-07T21:00:23.869Z,51.70
2023-01-07T21:02:50.755Z,49.83
2023-01-07T21:05:20.538Z,51.85
2023-01-07T21:07:49.220Z,53.80
2023-01-07T21:10:18.717Z,53.65
2023-01-07T21:12:46.364Z,50.90
2023-01-07T21:15:15.063Z,50.20
2023-01-07T21:17:43.046Z,51.58
2023-01-07T21:20:14.046Z,52.97
2023-01-07T21:22:41.454Z,51.55
2023-01-07T21:25:11.309Z,48.35
2023-01-07T21:27:38.811Z,49.65
2023-01-07T21:30:07.333Z,49.45
2023-01-07T21:32:35.083Z,51.22
2023-01-07T21:35:04.488Z,49.88
2023-01-07T21:37:31.307Z,50.28
2023-01-07T21:39:58.730Z,51.58
2023-01-07T21:42:25.732Z,52.42
2023-01-07T21:44:52.623Z,51.45
2023-01-07T21:47:19.521Z,51.65
2023-01-07T21:49:46.272Z,50.60
2023-01-07T21:52:13.191Z,49.67
2023-01-07T21:54:40.071Z,49.10
2023-01-07T21:57:06.857Z,49.33
2023-01-07T21:59:33.700Z,48.30
2023-01-07T22:02:00.693Z,48.58
2023-01-07T22:04:28.886Z,49.83
2023-01-07T22:06:55.760Z,51.35
2023-01-07T22:09:24.259Z,49.08
2023-01-07T22:11:51.254Z,50.83
2023-01-07T22:14:19.208Z,49.95
2023-01-07T22:16:48.897Z,51.53
2023-01-07T22:19:16.257Z,53.90
2023-01-07T22:21:43.124Z,53.45
2023-01-07T22:24:09.992Z,54.08
2023-01-07T22:26:36.900Z,56.88
2023-01-07T22:29:07.705Z,55.63
2023-01-07T22:31:36.776Z,56.20
2023-01-07T22:34:06.072Z,55.38
2023-01-07T22:36:35.650Z,53.22
2023-01-07T22:39:10.354Z,55.40
2023-01-07T22:41:37.674Z,52.33
2023-01-07T22:44:13.734Z,53.88
2023-01-07T22:46:43.971Z,50.88
2023-01-07T22:49:10.880Z,52.60
2023-01-07T22:51:43.835Z,51.72
2023-01-07T22:54:12.475Z,52.38
2023-01-07T22:56:40.268Z,51.05
2023-01-07T22:59:07.108Z,53.22
2023-01-07T23:01:34.484Z,52.60
2023-01-07T23:04:01.508Z,54.42
2023-01-07T23:06:28.416Z,55.75
2023-01-07T23:08:55.202Z,54.65
2023-01-07T23:11:40.529Z,54.92
2023-01-07T23:14:07.386Z,55.55
2023-01-07T23:16:36.348Z,54.65
2023-01-07T23:19:03.481Z,55.03
2023-01-07T23:21:31.992Z,53.97
2023-01-07T23:23:59.284Z,57.58
2023-01-07T23:26:26.403Z,54.45
2023-01-07T23:28:53.283Z,55.33
2023-01-07T23:31:20.384Z,55.63
2023-01-07T23:33:47.339Z,54.15
2023-01-07T23:36:14.222Z,53.60
2023-01-07T23:38:41.221Z,53.60
2023-01-07T23:41:10.360Z,52.92
2023-01-07T23:43:37.388Z,57.38
2023-01-07T23:46:06.691Z,55.92
2023-01-07T23:48:35.543Z,53.47
2023-01-07T23:51:08.264Z,55.67
2023-01-07T23:53:35.752Z,53.75
2023-01-07T23:56:03.195Z,57.08
2023-01-07T23:58:30.388Z,56.45
